Marion Junction, Alabama
Current Conditions -  °F | °C
As of 5:55 PM on Saturday 22 Nov 2014 (Local Time) from KSEM Reporting Station
Drizzle Drizzle  
Wind Chill: 59°   Ceiling: 2500
Heat Index: 59°   Visibility: 3mi
Dew Point: 57°   Wind: 8mph
Humidity: 94%   Direction: 120°ESE
Pressure: 30.16"   Gusts: 16mph
Location:  32.44°N, 87.24°W
Report Text: KSEM 222355Z AUTO 12007G14KT 3SM -DZ BKN025 OVC029 15/14 A3016 RMK AO2
Loading
Personal Weather Stations






























Interactive Weather Map New forecast layout! Learn more

10-Day Weather Forecast

Advertisements
Track Severe Weather on mobile